KAEX/AEX METAR and TAF weather

Enter ICAO airport designator
Station Type Date Time Source
KAEX METAR 2018/12/12 16:53 UTC NOAA

KAEX 121653Z 14009KT 10SM BKN070 11/06 A3015 RMK AO2 SLP213 T01110061


Station Type Date Time Source
KAEX Decoded METAR 2018/12/12 16:53 UTC NOAA

ALEXANDRIA INTERNATIONAL AIRPORT, LA, United States (KAEX) 31-33N 092-56W 27M
Dec 12, 2018 - 11:53 AM EST / 2018.12.12 1653 UTC
Wind: from the SE (140 degrees) at 10 MPH (9 KT):0
Visibility: 10 mile(s):0
Sky conditions: mostly cloudy
Temperature: 52.0 F (11.1 C)
Dew Point: 43.0 F (6.1 C)
Relative Humidity: 71%
Pressure (altimeter): 30.15 in. Hg (1020 hPa)
ob: KAEX 121653Z 14009KT 10SM BKN070 11/06 A3015 RMK AO2 SLP213 T01110061
cycle: 17

Station Type Date Time Source
KAEX TAF 2018/12/12 18:22 UTC NOAA

TAF KAEX 121720Z 1218/1318 14010KT P6SM BKN070
FM130000 14008KT P6SM OVC050
FM130600 14007KT P6SM VCSH SCT015 OVC035
TEMPO 1308/1312 4SM SHRA OVC015
FM131200 13010KT P6SM SHRA VCTS OVC015CB


Example: see airport list